Time;durP1;ratioP1;P1;durP2;ratioP2;P2;SDS_P1;SDS_P2;PMS_P1;PMS_P2;Temp;Humidity;BMP_temperature;BMP_pressure;BME280_temperature;BME280_humidity;BME280_pressure;Samples;Min_cycle;Max_cycle;Signal;HPM_P1;HPM_P2
2022/01/29 00:01:36;;;;;;;2.10;0.70;;;2.50;74.60;;;;;;5070875;28;20255;-74
2022/01/29 00:04:03;;;;;;;0.50;0.50;;;2.50;74.50;;;;;;5060755;28;20230;-73
2022/01/29 00:06:29;;;;;;;0.97;0.60;;;2.50;74.70;;;;;;5070307;28;20198;-72
2022/01/29 00:08:56;;;;;;;0.57;0.57;;;2.50;74.90;;;;;;5067906;28;20220;-73
2022/01/29 00:11:28;;;;;;;0.50;0.50;;;2.40;75.00;;;;;;5069709;28;20190;-73
2022/01/29 00:13:54;;;;;;;0.80;0.80;;;2.40;75.10;;;;;;5069021;28;20179;-73
2022/01/29 00:16:19;;;;;;;0.80;0.73;;;2.40;75.40;;;;;;5068163;28;20762;-73
2022/01/29 00:18:45;;;;;;;1.10;0.77;;;2.40;75.50;;;;;;5074900;28;20193;-74
2022/01/29 00:21:11;;;;;;;3.57;0.73;;;2.40;75.60;;;;;;5069887;28;20183;-72
2022/01/29 00:23:37;;;;;;;1.17;0.60;;;2.40;75.90;;;;;;5067105;28;20295;-73
2022/01/29 00:26:02;;;;;;;0.87;0.80;;;2.40;75.90;;;;;;5068124;28;20505;-73
2022/01/29 00:28:29;;;;;;;0.37;0.37;;;2.40;75.90;;;;;;5069918;28;20182;-72
2022/01/29 00:30:56;;;;;;;0.73;0.73;;;2.30;76.10;;;;;;5073977;28;20647;-73
2022/01/29 00:33:21;;;;;;;0.77;0.77;;;2.30;76.20;;;;;;5072694;28;20186;-74
2022/01/29 00:35:47;;;;;;;0.63;0.57;;;2.30;76.20;;;;;;5069382;28;20191;-74
2022/01/29 00:38:13;;;;;;;1.43;0.60;;;2.30;76.30;;;;;;5067438;28;20190;-73
2022/01/29 00:40:39;;;;;;;1.07;0.60;;;2.40;76.40;;;;;;5073540;28;20190;-73
2022/01/29 00:43:05;;;;;;;1.53;0.83;;;2.30;76.50;;;;;;5061470;28;20327;-73
2022/01/29 00:45:32;;;;;;;1.60;0.63;;;2.40;76.50;;;;;;5064180;28;21438;-73
2022/01/29 00:47:58;;;;;;;0.80;0.80;;;2.30;76.80;;;;;;5067132;28;20206;-74
2022/01/29 00:50:24;;;;;;;0.73;0.67;;;2.30;77.00;;;;;;5068955;28;20222;-72
2022/01/29 00:52:49;;;;;;;1.57;1.43;;;2.30;77.10;;;;;;5070254;28;20183;-73
2022/01/29 00:55:15;;;;;;;1.77;1.17;;;2.30;77.10;;;;;;5067862;28;20179;-73
2022/01/29 00:57:42;;;;;;;0.90;0.90;;;2.30;77.30;;;;;;5064071;28;20222;-73
2022/01/29 01:00:11;;;;;;;1.43;1.33;;;2.30;77.60;;;;;;5066298;28;20185;-73
2022/01/29 01:02:38;;;;;;;0.93;0.93;;;2.30;78.10;;;;;;5069979;28;20217;-75
2022/01/29 01:05:05;;;;;;;1.00;0.83;;;2.30;78.40;;;;;;5074985;28;20201;-74
2022/01/29 01:07:31;;;;;;;1.23;0.87;;;2.30;78.60;;;;;;5061445;28;20407;-74
2022/01/29 01:09:56;;;;;;;4.13;0.60;;;2.30;78.70;;;;;;5066358;28;20252;-73
2022/01/29 01:12:22;;;;;;;5.60;1.10;;;2.30;78.90;;;;;;5068605;28;20188;-74
2022/01/29 01:14:48;;;;;;;0.93;0.93;;;2.30;79.00;;;;;;5073188;28;20671;-73
2022/01/29 01:17:14;;;;;;;1.53;1.40;;;2.30;79.00;;;;;;5074508;28;20676;-73
2022/01/29 01:19:40;;;;;;;1.27;1.13;;;2.30;79.00;;;;;;5068234;28;20244;-73
2022/01/29 01:22:05;;;;;;;0.80;0.80;;;2.30;78.90;;;;;;5071177;28;20232;-73
2022/01/29 01:24:31;;;;;;;0.80;0.80;;;2.30;79.00;;;;;;5071141;28;20681;-73
2022/01/29 01:26:58;;;;;;;3.00;1.20;;;2.30;79.00;;;;;;5074946;28;20282;-74
2022/01/29 01:29:24;;;;;;;1.70;1.20;;;2.30;79.10;;;;;;5071049;28;20243;-73
2022/01/29 01:31:50;;;;;;;2.20;0.73;;;2.30;79.10;;;;;;5070552;28;20240;-74
2022/01/29 01:34:19;;;;;;;0.87;0.83;;;2.30;79.20;;;;;;5074408;28;20196;-74
2022/01/29 01:36:59;;;;;;;1.07;1.07;;;2.20;79.50;;;;;;5073740;28;20190;-73
2022/01/29 01:39:26;;;;;;;1.00;1.00;;;2.20;79.70;;;;;;5068448;28;20183;-75
2022/01/29 01:41:57;;;;;;;1.20;1.07;;;2.20;79.80;;;;;;5075192;28;20279;-74
2022/01/29 01:44:23;;;;;;;1.20;1.20;;;2.10;79.90;;;;;;5070370;28;20229;-75
2022/01/29 01:46:49;;;;;;;0.70;0.70;;;2.10;80.10;;;;;;5071940;28;20273;-77
2022/01/29 01:49:16;;;;;;;0.67;0.67;;;2.20;79.90;;;;;;5071318;28;20183;-77
2022/01/29 01:51:42;;;;;;;1.33;1.30;;;2.20;80.10;;;;;;5071686;28;20583;-75
2022/01/29 01:54:09;;;;;;;0.73;0.73;;;2.10;80.40;;;;;;5069689;28;20965;-75
2022/01/29 01:56:34;;;;;;;1.00;0.93;;;2.10;80.40;;;;;;5068111;28;20229;-74
2022/01/29 01:59:00;;;;;;;0.77;0.77;;;2.10;80.40;;;;;;5073230;28;20183;-73
2022/01/29 02:01:26;;;;;;;1.73;1.63;;;2.10;80.60;;;;;;5068101;28;20262;-73
2022/01/29 02:03:52;;;;;;;1.40;1.17;;;2.10;80.70;;;;;;5073691;28;20245;-73
2022/01/29 02:06:19;;;;;;;0.77;0.77;;;2.10;80.70;;;;;;5073961;28;20175;-73
2022/01/29 02:08:45;;;;;;;1.00;1.00;;;2.00;81.00;;;;;;5070840;28;20190;-73
2022/01/29 02:11:11;;;;;;;0.80;0.80;;;2.00;81.00;;;;;;5069569;28;20210;-73
2022/01/29 02:13:37;;;;;;;1.37;1.20;;;2.00;81.40;;;;;;5076451;28;20214;-74
2022/01/29 02:16:04;;;;;;;3.00;1.00;;;2.00;81.40;;;;;;5079229;28;20214;-71
2022/01/29 02:18:30;;;;;;;1.70;1.13;;;2.00;81.40;;;;;;5091093;28;20218;-73
2022/01/29 02:20:58;;;;;;;1.57;1.03;;;2.00;81.50;;;;;;5074379;28;20209;-73
2022/01/29 02:23:25;;;;;;;0.70;0.70;;;1.90;81.60;;;;;;5075465;28;20275;-73
2022/01/29 02:25:51;;;;;;;0.90;0.90;;;1.90;81.60;;;;;;5075439;28;20187;-73
2022/01/29 02:28:19;;;;;;;1.10;0.93;;;2.00;81.60;;;;;;5069628;28;20183;-73
2022/01/29 02:30:59;;;;;;;1.03;1.03;;;2.00;81.80;;;;;;5076934;28;21266;-74
2022/01/29 02:33:26;;;;;;;1.57;0.90;;;2.00;81.80;;;;;;5076122;28;20179;-73
2022/01/29 02:35:53;;;;;;;4.60;1.10;;;2.00;81.90;;;;;;5070749;28;20187;-73
2022/01/29 02:38:22;;;;;;;5.20;1.00;;;2.00;82.00;;;;;;5067274;28;20287;-72
2022/01/29 02:40:51;;;;;;;2.43;1.10;;;2.00;82.00;;;;;;5074140;28;20183;-72
2022/01/29 02:43:23;;;;;;;0.83;0.83;;;2.00;82.00;;;;;;5069634;28;20210;-72
2022/01/29 02:45:52;;;;;;;1.13;1.03;;;1.90;81.90;;;;;;5074837;28;20186;-72
2022/01/29 02:48:18;;;;;;;1.00;1.00;;;2.00;82.00;;;;;;5071948;28;20178;-73
2022/01/29 02:50:44;;;;;;;1.13;0.90;;;2.00;82.00;;;;;;5068349;28;20261;-72
2022/01/29 02:53:10;;;;;;;1.70;1.17;;;2.00;82.00;;;;;;5071111;28;20944;-72
2022/01/29 02:55:36;;;;;;;0.60;0.60;;;2.00;81.90;;;;;;5086985;28;20937;-72
2022/01/29 02:58:02;;;;;;;0.27;0.27;;;2.00;81.80;;;;;;5068257;28;20187;-72
2022/01/29 03:00:28;;;;;;;0.73;0.73;;;2.00;81.80;;;;;;5069492;28;20602;-72
2022/01/29 03:02:54;;;;;;;1.00;1.00;;;2.00;81.80;;;;;;5065858;28;20218;-72
2022/01/29 03:05:20;;;;;;;1.30;0.97;;;2.00;81.80;;;;;;5072873;28;20179;-72
2022/01/29 03:07:46;;;;;;;1.47;1.33;;;;;;;;;;5073713;28;20622;-73
2022/01/29 03:10:12;;;;;;;1.63;1.53;;;;;;;;;;5070975;28;20195;-72
2022/01/29 03:12:40;;;;;;;0.80;0.80;;;2.00;81.90;;;;;;5072893;28;20187;-72
2022/01/29 03:15:06;;;;;;;1.87;1.00;;;2.00;81.80;;;;;;5066730;28;20214;-72
2022/01/29 03:17:32;;;;;;;1.50;0.93;;;2.00;81.60;;;;;;5075588;28;20270;-73
2022/01/29 03:19:58;;;;;;;1.33;1.03;;;2.00;81.40;;;;;;5073451;28;20649;-72
2022/01/29 03:22:23;;;;;;;0.93;0.83;;;2.00;81.20;;;;;;5069335;28;20197;-72
2022/01/29 03:24:49;;;;;;;1.60;0.83;;;;;;;;;;5071696;28;20186;-72
2022/01/29 03:27:15;;;;;;;1.03;1.03;;;1.90;81.20;;;;;;5071759;28;20261;-72
2022/01/29 03:29:41;;;;;;;0.57;0.57;;;1.90;81.20;;;;;;5077579;28;20289;-73
2022/01/29 03:32:07;;;;;;;0.87;0.80;;;1.90;81.30;;;;;;5074057;28;20236;-73
2022/01/29 03:34:33;;;;;;;0.50;0.50;;;1.90;81.20;;;;;;5072287;28;20217;-73
2022/01/29 03:36:59;;;;;;;0.70;0.70;;;1.90;80.80;;;;;;5072345;28;20210;-72
2022/01/29 03:39:26;;;;;;;1.00;0.70;;;1.90;80.80;;;;;;5068872;28;20174;-72
2022/01/29 03:41:53;;;;;;;1.00;1.00;;;1.90;80.70;;;;;;5073091;28;20196;-72
2022/01/29 03:44:20;;;;;;;1.77;0.47;;;1.90;80.60;;;;;;5068807;28;20207;-72
2022/01/29 03:46:47;;;;;;;7.33;0.87;;;1.90;80.60;;;;;;5071707;28;20182;-72
2022/01/29 03:49:13;;;;;;;2.40;0.60;;;;;;;;;;5073744;28;20190;-72
2022/01/29 03:51:39;;;;;;;0.70;0.70;;;;;;;;;;5071857;28;20571;-71
2022/01/29 03:54:05;;;;;;;1.10;1.10;;;;;;;;;;5067047;28;20680;-73
2022/01/29 03:56:31;;;;;;;0.50;0.50;;;;;;;;;;5072492;28;20715;-73
2022/01/29 03:58:57;;;;;;;1.40;1.10;;;;;;;;;;5064042;28;20711;-73
2022/01/29 04:01:23;;;;;;;1.07;0.60;;;;;;;;;;5069645;28;20210;-72
2022/01/29 04:03:49;;;;;;;0.70;0.70;;;;;;;;;;5071525;28;20253;-73
2022/01/29 04:06:15;;;;;;;0.43;0.43;;;;;;;;;;5070220;28;20183;-74
2022/01/29 04:08:43;;;;;;;0.93;0.87;;;;;;;;;;5068072;28;20183;-73
2022/01/29 04:11:11;;;;;;;0.67;0.67;;;1.80;81.20;;;;;;5069498;28;20222;-73
2022/01/29 04:13:40;;;;;;;0.50;0.50;;;1.70;81.20;;;;;;5074550;28;20187;-73
2022/01/29 04:16:06;;;;;;;3.87;0.97;;;;;;;;;;5068109;28;20182;-73
2022/01/29 04:18:32;;;;;;;1.10;0.90;;;;;;;;;;5065899;28;20559;-73
2022/01/29 04:20:58;;;;;;;0.40;0.40;;;;;;;;;;5068410;28;20664;-73
2022/01/29 04:23:24;;;;;;;0.80;0.80;;;;;;;;;;5072294;28;20211;-73
2022/01/29 04:25:53;;;;;;;0.70;0.57;;;;;;;;;;5072167;28;20187;-73
2022/01/29 04:28:27;;;;;;;0.50;0.50;;;1.70;81.60;;;;;;5070067;28;20423;-73
2022/01/29 04:30:58;;;;;;;0.80;0.80;;;;;;;;;;5074356;28;21901;-73
2022/01/29 04:35:51;;;;;;;0.73;0.73;;;1.70;81.40;;;;;;5075199;28;20270;-73
2022/01/29 04:38:17;;;;;;;0.50;0.47;;;1.70;81.40;;;;;;5069834;28;20183;-73
2022/01/29 04:40:43;;;;;;;1.17;0.40;;;1.70;81.10;;;;;;5075029;28;20252;-73
2022/01/29 04:43:09;;;;;;;0.67;0.67;;;;;;;;;;5066062;28;20601;-73
2022/01/29 04:45:35;;;;;;;8.47;0.80;;;1.70;80.80;;;;;;5071227;28;20551;-73
2022/01/29 04:48:01;;;;;;;1.47;0.60;;;1.70;80.40;;;;;;5069477;28;20184;-73
2022/01/29 04:50:27;;;;;;;0.30;0.30;;;1.70;80.50;;;;;;5067545;28;20571;-73
2022/01/29 04:52:53;;;;;;;0.30;0.30;;;1.70;80.40;;;;;;5069421;28;20193;-73
2022/01/29 04:55:21;;;;;;;0.50;0.50;;;1.70;80.40;;;;;;5069432;28;20178;-73
2022/01/29 04:57:47;;;;;;;0.50;0.50;;;;;;;;;;5074463;28;20183;-72
2022/01/29 05:00:21;;;;;;;0.47;0.47;;;1.70;80.80;;;;;;5065773;28;20185;-72
2022/01/29 05:02:52;;;;;;;0.40;0.40;;;1.70;80.90;;;;;;5075626;28;20218;-72
2022/01/29 05:05:19;;;;;;;0.67;0.67;;;1.70;81.00;;;;;;5073635;28;20179;-72
2022/01/29 05:07:44;;;;;;;0.47;0.47;;;1.70;81.10;;;;;;5073935;28;20668;-72
2022/01/29 05:10:11;;;;;;;0.60;0.60;;;1.70;81.20;;;;;;5070898;28;20313;-72
2022/01/29 05:12:52;;;;;;;2.33;0.80;;;1.70;81.40;;;;;;5070700;28;20179;-73
2022/01/29 05:28:44;;;;;;;0.67;0.67;;;;;;;;;;5076237;28;20190;-72
2022/01/29 05:31:10;;;;;;;0.47;0.47;;;;;;;;;;5072681;28;20235;-73
2022/01/29 05:33:36;;;;;;;1.10;0.93;;;;;;;;;;5074494;28;20220;-72
2022/01/29 05:36:02;;;;;;;0.83;0.63;;;1.50;83.00;;;;;;5069885;28;20183;-72
2022/01/29 05:38:29;;;;;;;0.33;0.33;;;;;;;;;;5068683;28;20200;-72
2022/01/29 05:40:55;;;;;;;1.30;0.60;;;1.50;83.10;;;;;;5071951;28;20197;-71
2022/01/29 05:43:22;;;;;;;0.63;0.63;;;1.50;83.30;;;;;;5071496;28;20243;-72
2022/01/29 05:45:48;;;;;;;1.13;0.97;;;1.50;83.40;;;;;;5068899;28;20197;-72
2022/01/29 05:48:14;;;;;;;0.40;0.40;;;;;;;;;;5078415;28;20194;-71
2022/01/29 05:50:40;;;;;;;0.60;0.60;;;;;;;;;;5069439;28;20265;-71
2022/01/29 05:53:06;;;;;;;0.40;0.40;;;1.50;83.90;;;;;;5072063;28;20191;-72
2022/01/29 05:55:31;;;;;;;0.77;0.77;;;1.50;83.90;;;;;;5071314;28;20189;-72
2022/01/29 05:57:57;;;;;;;0.87;0.87;;;1.50;83.90;;;;;;5067726;28;20182;-72
2022/01/29 06:00:23;;;;;;;1.10;1.10;;;1.40;84.20;;;;;;5072574;28;20183;-72
2022/01/29 06:03:03;;;;;;;2.83;1.40;;;1.40;84.30;;;;;;5073497;28;20851;-73
2022/01/29 06:05:29;;;;;;;0.57;0.57;;;1.40;84.40;;;;;;5075242;28;20623;-72
2022/01/29 06:07:55;;;;;;;0.97;0.77;;;1.50;84.40;;;;;;5074885;28;20202;-73
2022/01/29 06:10:21;;;;;;;1.80;1.37;;;;;;;;;;5068794;28;20238;-73
2022/01/29 06:13:08;;;;;;;0.70;0.70;;;1.50;84.50;;;;;;5071832;28;21536;-72
2022/01/29 06:15:40;;;;;;;0.80;0.80;;;1.50;84.60;;;;;;5071887;28;20175;-72
2022/01/29 06:18:06;;;;;;;0.90;0.90;;;1.50;84.40;;;;;;5066881;28;20195;-73
2022/01/29 06:20:33;;;;;;;1.00;0.90;;;1.60;84.40;;;;;;5070889;28;20183;-73
2022/01/29 06:22:59;;;;;;;0.97;0.97;;;1.60;84.50;;;;;;5076395;28;20210;-73
2022/01/29 06:25:25;;;;;;;1.07;1.07;;;1.60;84.50;;;;;;5071420;28;20190;-73
2022/01/29 06:27:51;;;;;;;2.03;1.53;;;;;;;;;;5072475;28;20185;-73
2022/01/29 06:30:17;;;;;;;1.67;0.70;;;;;;;;;;5072228;28;20764;-73
2022/01/29 06:32:43;;;;;;;0.83;0.83;;;1.60;84.20;;;;;;5068244;28;20271;-73
2022/01/29 06:35:10;;;;;;;0.93;0.93;;;1.60;84.20;;;;;;5073984;28;20835;-73
2022/01/29 06:37:36;;;;;;;0.97;0.97;;;;;;;;;;5068688;28;20187;-73
2022/01/29 06:40:03;;;;;;;0.97;0.93;;;1.70;84.10;;;;;;5071259;28;20232;-73
2022/01/29 06:42:29;;;;;;;0.93;0.93;;;;;;;;;;5071806;28;20177;-73
2022/01/29 06:44:55;;;;;;;1.87;1.13;;;;;;;;;;5072835;28;20193;-73
2022/01/29 06:47:21;;;;;;;0.70;0.70;;;1.80;83.80;;;;;;5067384;28;20231;-73
2022/01/29 06:49:46;;;;;;;1.47;1.37;;;1.80;83.50;;;;;;5074717;28;20190;-73
2022/01/29 06:52:12;;;;;;;0.60;0.50;;;2.00;83.40;;;;;;5069492;28;20184;-73
2022/01/29 06:54:38;;;;;;;0.90;0.90;;;;;;;;;;5073273;28;20681;-73
2022/01/29 06:57:04;;;;;;;0.67;0.67;;;2.00;83.00;;;;;;5065444;28;20265;-73
2022/01/29 06:59:30;;;;;;;1.13;0.57;;;2.10;83.00;;;;;;5069560;28;20632;-73
2022/01/29 07:01:56;;;;;;;2.97;1.10;;;;;;;;;;5068238;28;20190;-73
2022/01/29 07:04:22;;;;;;;3.23;1.13;;;;;;;;;;5060502;28;20620;-73
2022/01/29 07:06:48;;;;;;;1.10;1.10;;;2.80;81.80;;;;;;5066696;28;20188;-73
2022/01/29 07:09:14;;;;;;;0.87;0.87;;;;;;;;;;5060347;28;20673;-73
2022/01/29 07:11:43;;;;;;;1.10;1.00;;;;;;;;;;5064741;28;20195;-73
2022/01/29 07:14:11;;;;;;;1.10;1.10;;;2.90;80.70;;;;;;5064670;28;20183;-72
2022/01/29 07:16:37;;;;;;;3.33;1.30;;;2.90;80.80;;;;;;5068533;28;20181;-74
2022/01/29 07:19:03;;;;;;;2.00;1.33;;;2.80;80.90;;;;;;5063963;28;20183;-74
2022/01/29 07:21:30;;;;;;;1.07;1.07;;;2.80;80.80;;;;;;5073763;28;20233;-74
2022/01/29 07:23:55;;;;;;;0.93;0.93;;;2.70;80.90;;;;;;5085341;28;20218;-74
2022/01/29 07:26:21;;;;;;;1.00;0.90;;;2.60;81.10;;;;;;5069668;28;20576;-73
2022/01/29 07:28:47;;;;;;;1.17;1.17;;;2.60;81.10;;;;;;5064972;28;21998;-74
2022/01/29 07:31:13;;;;;;;0.93;0.93;;;2.50;81.40;;;;;;5070189;28;20240;-75
2022/01/29 07:33:39;;;;;;;1.20;1.07;;;;;;;;;;5067136;28;20187;-74
2022/01/29 07:36:05;;;;;;;1.00;1.00;;;2.50;81.50;;;;;;5065888;28;20622;-75
2022/01/29 07:38:31;;;;;;;2.43;1.53;;;2.50;81.50;;;;;;5065478;28;20261;-76
2022/01/29 07:40:56;;;;;;;1.50;0.90;;;2.60;81.50;;;;;;5066239;28;20324;-74
2022/01/29 07:43:22;;;;;;;1.97;1.23;;;2.60;81.70;;;;;;5067841;28;20219;-74
2022/01/29 07:45:48;;;;;;;1.33;1.33;;;;;;;;;;5066474;28;20190;-73
2022/01/29 07:48:15;;;;;;;1.43;1.43;;;;;;;;;;5069653;28;20211;-74
2022/01/29 07:50:40;;;;;;;0.90;0.90;;;2.60;81.20;;;;;;5067803;28;20190;-74
2022/01/29 07:53:06;;;;;;;0.97;0.97;;;2.60;81.20;;;;;;5069017;28;20182;-74
2022/01/29 07:55:32;;;;;;;6.27;1.20;;;2.50;81.40;;;;;;5071773;28;20278;-74
2022/01/29 07:57:59;;;;;;;0.70;0.70;;;2.50;81.60;;;;;;5064371;28;20178;-73
2022/01/29 08:00:25;;;;;;;1.03;1.03;;;2.50;81.80;;;;;;5067717;28;20187;-75
2022/01/29 08:02:50;;;;;;;5.40;0.97;;;2.40;81.90;;;;;;5070662;28;20598;-74
2022/01/29 08:05:16;;;;;;;1.60;0.97;;;2.40;81.90;;;;;;5064488;28;20762;-73
2022/01/29 08:07:43;;;;;;;0.83;0.83;;;2.40;82.00;;;;;;5065884;28;20187;-73
2022/01/29 08:10:10;;;;;;;0.93;0.93;;;2.40;82.10;;;;;;5072804;28;20218;-74
2022/01/29 08:12:35;;;;;;;1.10;1.00;;;2.30;82.30;;;;;;5067029;28;20179;-73
2022/01/29 08:15:02;;;;;;;1.37;0.97;;;2.30;82.40;;;;;;5063813;28;20187;-72
2022/01/29 08:17:29;;;;;;;1.47;1.37;;;2.30;82.40;;;;;;5069950;28;20560;-72
2022/01/29 08:19:55;;;;;;;1.17;0.90;;;2.30;82.80;;;;;;5068836;28;20183;-72
2022/01/29 08:22:21;;;;;;;1.00;1.00;;;;;;;;;;5063793;28;20201;-72
2022/01/29 08:24:47;;;;;;;1.10;1.10;;;;;;;;;;5067611;28;20221;-73
2022/01/29 08:27:13;;;;;;;0.97;0.97;;;;;;;;;;5069243;28;20189;-73
2022/01/29 08:29:39;;;;;;;1.00;1.00;;;;;;;;;;5070535;28;20179;-72
2022/01/29 08:32:05;;;;;;;0.70;0.70;;;2.40;82.90;;;;;;5069838;28;20578;-73
2022/01/29 08:34:31;;;;;;;1.60;1.07;;;;;;;;;;5066126;28;20182;-73
2022/01/29 08:37:02;;;;;;;1.00;1.00;;;2.50;83.00;;;;;;5064376;28;20197;-73
2022/01/29 08:39:28;;;;;;;1.37;1.27;;;;;;;;;;5072457;28;20186;-73
2022/01/29 08:41:55;;;;;;;1.40;1.30;;;2.60;83.10;;;;;;5067072;28;20247;-73
2022/01/29 08:44:21;;;;;;;1.63;1.53;;;;;;;;;;5067606;28;20219;-73
2022/01/29 08:46:47;;;;;;;1.80;1.67;;;;;;;;;;5071248;28;20290;-73
2022/01/29 08:49:13;;;;;;;2.30;1.87;;;3.00;82.40;;;;;;5069806;28;20190;-73
2022/01/29 08:51:39;;;;;;;1.33;1.33;;;3.20;81.60;;;;;;5073959;28;20186;-73
2022/01/29 08:54:05;;;;;;;1.07;1.07;;;3.60;81.50;;;;;;5066705;28;20184;-72
2022/01/29 08:56:30;;;;;;;2.07;1.27;;;4.10;80.20;;;;;;5067495;28;20782;-73
2022/01/29 08:58:56;;;;;;;2.10;1.27;;;;;;;;;;5067868;28;20193;-73
2022/01/29 09:01:22;;;;;;;2.77;2.20;;;5.70;76.60;;;;;;5073737;28;20186;-71
2022/01/29 09:03:49;;;;;;;1.80;1.70;;;;;;;;;;5066655;28;20224;-72
2022/01/29 09:06:14;;;;;;;2.23;2.10;;;7.00;74.50;;;;;;5073621;28;20269;-73
2022/01/29 09:08:45;;;;;;;2.83;1.97;;;7.50;72.80;;;;;;5066164;28;20283;-72
2022/01/29 09:11:11;;;;;;;3.07;2.83;;;;;;;;;;5068795;28;20193;-71
2022/01/29 09:13:37;;;;;;;2.20;2.10;;;7.80;70.50;;;;;;5065609;28;20191;-74
2022/01/29 09:16:03;;;;;;;1.57;1.47;;;7.70;69.50;;;;;;5069165;28;20193;-72
2022/01/29 09:18:29;;;;;;;2.13;1.93;;;7.40;69.70;;;;;;5071335;28;20176;-73
2022/01/29 09:20:55;;;;;;;3.23;1.93;;;;;;;;;;5070041;28;20186;-72
2022/01/29 09:23:21;;;;;;;3.03;1.70;;;;;;;;;;5070220;28;20209;-73
2022/01/29 09:25:46;;;;;;;2.03;1.80;;;6.20;71.40;;;;;;5072021;28;20265;-73
2022/01/29 09:28:13;;;;;;;4.67;2.13;;;5.90;72.10;;;;;;5068964;28;20274;-72
2022/01/29 09:30:40;;;;;;;1.80;1.67;;;5.20;74.10;;;;;;5067124;28;20654;-73
2022/01/29 09:33:06;;;;;;;1.83;1.73;;;;;;;;;;5071153;28;20182;-73
2022/01/29 09:35:32;;;;;;;3.73;1.63;;;5.00;75.20;;;;;;5069113;28;20179;-73
2022/01/29 09:37:57;;;;;;;2.00;1.90;;;4.90;75.50;;;;;;5069901;28;20187;-73
2022/01/29 09:40:24;;;;;;;2.10;2.00;;;5.00;75.50;;;;;;5065404;28;20236;-74
2022/01/29 09:42:51;;;;;;;5.40;1.83;;;5.00;75.50;;;;;;5056685;28;20257;-72
2022/01/29 09:45:19;;;;;;;1.57;1.50;;;5.10;74.60;;;;;;5065599;28;20194;-73
2022/01/29 09:47:47;;;;;;;1.73;1.73;;;5.10;74.70;;;;;;5066255;28;20210;-73
2022/01/29 09:50:15;;;;;;;1.50;1.40;;;5.00;74.40;;;;;;5074266;28;20218;-73
2022/01/29 09:52:41;;;;;;;1.80;1.70;;;5.00;74.40;;;;;;5068332;28;20191;-74
2022/01/29 09:55:08;;;;;;;1.67;1.57;;;5.00;74.70;;;;;;5074322;28;20236;-73
2022/01/29 09:57:34;;;;;;;1.80;1.70;;;5.10;74.60;;;;;;5069852;28;20210;-74
2022/01/29 10:00:00;;;;;;;2.50;2.30;;;5.00;74.00;;;;;;5067265;28;20262;-73
2022/01/29 10:02:26;;;;;;;2.33;1.57;;;5.00;73.90;;;;;;5067300;28;20311;-73
2022/01/29 10:04:57;;;;;;;2.30;1.40;;;4.80;74.30;;;;;;5071069;28;20709;-73
2022/01/29 10:07:30;;;;;;;1.03;1.03;;;4.80;74.30;;;;;;5063796;28;20191;-74
2022/01/29 10:09:57;;;;;;;1.67;1.60;;;4.60;74.70;;;;;;5066886;28;20261;-74
2022/01/29 10:12:26;;;;;;;1.30;1.30;;;4.60;74.70;;;;;;5070049;28;20267;-73
2022/01/29 10:14:59;;;;;;;1.10;1.10;;;4.50;75.00;;;;;;5067952;28;20218;-73
2022/01/29 10:17:47;;;;;;;1.13;1.13;;;4.20;76.10;;;;;;5068383;28;20202;-74
2022/01/29 10:20:23;;;;;;;1.00;0.83;;;3.90;76.90;;;;;;5069614;28;20187;-74
2022/01/29 10:22:54;;;;;;;2.87;1.80;;;3.80;77.60;;;;;;5065396;28;20251;-73
2022/01/29 10:25:26;;;;;;;0.83;0.83;;;3.80;77.60;;;;;;5064329;28;20182;-73
2022/01/29 10:28:12;;;;;;;2.42;2.30;;;3.50;78.80;;;;;;5066872;28;20425;-72
2022/01/29 10:30:51;;;;;;;1.77;1.67;;;3.40;79.30;;;;;;5068514;28;20282;-72
2022/01/29 10:33:27;;;;;;;1.80;1.40;;;3.30;79.70;;;;;;5073887;28;20200;-72
2022/01/29 10:35:54;;;;;;;1.60;1.07;;;3.30;79.80;;;;;;5072830;28;20229;-73
2022/01/29 10:38:42;;;;;;;3.80;1.37;;;3.20;80.20;;;;;;5068303;28;20335;-73
2022/01/29 10:41:26;;;;;;;1.10;1.10;;;3.20;80.20;;;;;;5045609;28;20303;-73
2022/01/29 10:44:22;;;;;;;2.07;1.97;;;3.30;80.20;;;;;;5044211;28;20254;-72
2022/01/29 10:46:58;;;;;;;1.27;1.23;;;3.40;80.00;;;;;;5034412;28;20203;-73
2022/01/29 10:49:27;;;;;;;1.10;1.00;;;3.40;80.10;;;;;;5047246;28;20668;-73
2022/01/29 10:51:54;;;;;;;1.47;1.47;;;3.40;80.00;;;;;;5050469;28;20218;-73
2022/01/29 10:54:21;;;;;;;1.30;1.27;;;3.30;80.50;;;;;;5030302;28;20189;-73
2022/01/29 10:56:59;;;;;;;1.90;1.60;;;3.30;80.50;;;;;;5052144;28;20207;-74
2022/01/29 10:59:27;;;;;;;1.93;1.17;;;3.40;81.10;;;;;;5046488;28;20252;-73
2022/01/29 11:01:59;;;;;;;1.67;1.57;;;3.40;81.10;;;;;;5041266;28;20631;-74
2022/01/29 11:04:26;;;;;;;1.33;1.33;;;3.40;80.30;;;;;;5044450;28;20222;-72
2022/01/29 11:06:53;;;;;;;1.50;1.50;;;3.40;80.30;;;;;;5042719;28;20179;-72
2022/01/29 11:09:21;;;;;;;1.83;1.73;;;3.40;80.30;;;;;;5047258;28;20184;-73
2022/01/29 11:11:47;;;;;;;3.23;1.73;;;3.40;80.90;;;;;;5045380;28;20685;-71
2022/01/29 11:14:15;;;;;;;1.37;1.37;;;3.40;80.90;;;;;;5044263;28;20191;-73
2022/01/29 11:16:43;;;;;;;1.90;1.80;;;3.40;80.90;;;;;;5049237;28;20253;-73
2022/01/29 11:19:09;;;;;;;1.03;1.03;;;3.40;80.80;;;;;;5070478;28;20220;-73
2022/01/29 11:21:37;;;;;;;1.80;1.70;;;3.50;80.70;;;;;;5071310;28;20182;-72
2022/01/29 11:24:06;;;;;;;2.57;1.80;;;3.50;80.70;;;;;;5067747;28;20215;-73
2022/01/29 11:26:32;;;;;;;2.20;2.10;;;3.60;80.00;;;;;;5071220;28;20234;-72
2022/01/29 11:29:35;;;;;;;1.30;1.23;;;3.60;80.10;;;;;;5072688;28;20210;-73
2022/01/29 11:32:24;;;;;;;1.67;1.57;;;3.70;79.40;;;;;;5073502;28;20178;-73
2022/01/29 11:34:58;;;;;;;2.30;1.20;;;3.60;78.90;;;;;;5069574;28;20182;-73
2022/01/29 11:37:43;;;;;;;2.03;1.93;;;3.50;79.30;;;;;;5066360;28;20214;-72
2022/01/29 11:40:15;;;;;;;2.50;2.00;;;3.60;79.40;;;;;;5062320;28;20185;-72
2022/01/29 11:43:14;;;;;;;2.47;2.27;;;3.60;79.30;;;;;;5063882;28;20194;-72
2022/01/29 11:45:51;;;;;;;1.93;1.80;;;3.60;79.40;;;;;;5011417;28;20287;-72
2022/01/29 11:48:26;;;;;;;2.23;1.77;;;3.70;79.50;;;;;;4994550;28;20195;-73
2022/01/29 11:50:59;;;;;;;2.87;2.57;;;3.80;79.40;;;;;;4996055;28;20242;-72
2022/01/29 11:53:46;;;;;;;2.10;2.00;;;3.80;79.40;;;;;;5009581;28;20604;-73
2022/01/29 11:56:34;;;;;;;2.57;2.30;;;3.90;79.00;;;;;;4994671;28;20655;-72
2022/01/29 11:59:21;;;;;;;1.47;1.37;;;4.10;78.50;;;;;;4993087;28;20299;-73
2022/01/29 12:01:52;;;;;;;1.77;1.50;;;4.10;77.90;;;;;;5012247;28;20258;-72
2022/01/29 12:04:20;;;;;;;4.70;1.90;;;4.20;77.30;;;;;;5009473;28;20225;-73
2022/01/29 12:07:21;;;;;;;1.93;1.83;;;4.20;77.30;;;;;;5008277;28;20189;-72
2022/01/29 12:09:53;;;;;;;2.13;1.63;;;4.20;77.10;;;;;;4992832;28;20208;-72
2022/01/29 12:12:27;;;;;;;2.57;2.37;;;4.20;77.10;;;;;;5010282;28;20256;-72
2022/01/29 12:14:58;;;;;;;3.27;2.63;;;4.20;77.10;;;;;;4993577;28;20227;-72
2022/01/29 12:17:46;;;;;;;2.23;2.13;;;4.20;77.20;;;;;;5015727;28;20678;-73
2022/01/29 12:20:23;;;;;;;2.17;2.07;;;4.20;77.10;;;;;;4991301;28;21126;-73
2022/01/29 12:22:51;;;;;;;2.20;2.00;;;4.10;76.90;;;;;;5035334;28;20255;-72
2022/01/29 12:25:19;;;;;;;2.93;2.60;;;4.00;77.20;;;;;;5063976;28;20179;-72
2022/01/29 12:28:07;;;;;;;3.63;2.33;;;4.00;77.40;;;;;;5073946;28;20242;-73
2022/01/29 12:30:35;;;;;;;1.80;1.70;;;4.00;77.40;;;;;;5071070;28;20191;-72
2022/01/29 12:33:06;;;;;;;2.67;2.33;;;4.00;77.60;;;;;;5064652;28;20187;-73
2022/01/29 12:35:58;;;;;;;2.17;2.07;;;4.00;77.50;;;;;;5072245;28;20183;-73
2022/01/29 12:38:34;;;;;;;3.97;2.70;;;3.90;77.40;;;;;;5066190;28;20179;-73
2022/01/29 12:41:06;;;;;;;3.67;2.40;;;3.80;77.70;;;;;;5066649;28;20682;-72
2022/01/29 12:43:35;;;;;;;3.27;2.93;;;;;;;;;;5073895;28;20210;-75
2022/01/29 12:46:21;;;;;;;5.00;2.67;;;3.70;78.00;;;;;;5069169;28;20273;-71
2022/01/29 12:49:10;;;;;;;2.50;2.30;;;3.60;78.30;;;;;;5067002;28;20186;-70
2022/01/29 12:51:37;;;;;;;3.07;2.87;;;3.60;78.80;;;;;;5063968;28;20186;-71
2022/01/29 12:54:07;;;;;;;3.53;2.80;;;3.60;78.80;;;;;;5066989;28;20190;-70
2022/01/29 12:56:35;;;;;;;11.60;2.63;;;3.60;78.60;;;;;;5068347;28;20187;-70
2022/01/29 12:59:03;;;;;;;3.70;2.70;;;3.60;78.60;;;;;;5065558;28;20174;-70
2022/01/29 13:01:29;;;;;;;4.40;3.10;;;3.60;78.40;;;;;;5067706;28;20566;-69
2022/01/29 13:04:06;;;;;;;4.43;2.03;;;3.60;78.30;;;;;;5072513;28;20700;-69
2022/01/29 13:06:32;;;;;;;3.07;2.77;;;3.50;78.20;;;;;;5072453;28;20194;-70
2022/01/29 13:09:34;;;;;;;5.03;3.10;;;3.50;78.30;;;;;;5070080;28;20674;-69
2022/01/29 13:12:02;;;;;;;1.87;1.70;;;3.50;78.20;;;;;;5033772;28;20257;-70
2022/01/29 13:14:29;;;;;;;1.80;1.70;;;3.50;78.30;;;;;;5035188;28;20200;-71
2022/01/29 13:16:57;;;;;;;2.47;2.37;;;3.60;78.40;;;;;;5029580;28;20180;-71
2022/01/29 13:19:25;;;;;;;4.07;2.93;;;3.60;78.00;;;;;;5035677;28;20180;-71
2022/01/29 13:22:06;;;;;;;2.37;2.17;;;3.60;77.80;;;;;;5033089;28;20196;-73
2022/01/29 13:24:41;;;;;;;5.33;2.60;;;3.60;77.70;;;;;;5038515;28;20307;-72
2022/01/29 13:27:23;;;;;;;2.97;2.20;;;3.60;77.70;;;;;;5037542;28;21786;-73
2022/01/29 13:29:53;;;;;;;2.60;2.20;;;3.50;77.90;;;;;;5032642;28;20260;-73
2022/01/29 13:32:34;;;;;;;3.30;3.00;;;3.50;78.00;;;;;;5036691;28;20236;-73
2022/01/29 13:35:21;;;;;;;5.80;3.00;;;3.50;78.10;;;;;;5036167;28;20191;-73
2022/01/29 13:37:55;;;;;;;2.27;2.07;;;3.50;77.40;;;;;;5036538;28;20184;-73